createdAt,value
2024-03-12T00:09:07.722Z,7.85
2024-03-12T00:11:35.152Z,7.87
2024-03-12T00:14:05.766Z,7.82
2024-03-12T00:16:35.310Z,7.75
2024-03-12T00:19:34.925Z,7.68
2024-03-12T00:22:01.625Z,7.65
2024-03-12T00:24:29.638Z,7.60
2024-03-12T00:26:56.168Z,7.61
2024-03-12T00:29:22.926Z,7.60
2024-03-12T00:31:49.482Z,7.63
2024-03-12T00:34:27.031Z,7.59
2024-03-12T00:36:54.137Z,7.61
2024-03-12T00:39:23.179Z,7.59
2024-03-12T00:41:49.888Z,7.63
2024-03-12T00:44:16.393Z,7.69
2024-03-12T00:51:07.644Z,7.68
2024-03-12T00:53:34.197Z,7.66
2024-03-12T00:56:02.602Z,7.62
2024-03-12T00:58:29.616Z,7.59
2024-03-12T01:01:00.379Z,7.61
2024-03-12T01:03:27.433Z,7.62
2024-03-12T01:05:55.145Z,7.54
2024-03-12T01:11:39.163Z,7.48
2024-03-12T01:14:10.939Z,7.44
2024-03-12T01:16:38.077Z,7.53
2024-03-12T01:19:07.680Z,7.48
2024-03-12T01:21:36.166Z,7.45
2024-03-12T01:24:05.906Z,7.51
2024-03-12T01:26:33.096Z,7.46
2024-03-12T01:29:00.238Z,7.38
2024-03-12T01:31:29.224Z,7.38
2024-03-12T01:33:56.899Z,7.31
2024-03-12T01:36:35.628Z,7.33
2024-03-12T01:39:05.706Z,7.33
2024-03-12T01:41:33.631Z,7.25
2024-03-12T01:44:03.757Z,7.32
2024-03-12T01:46:35.443Z,7.27
2024-03-12T01:49:32.218Z,7.22
2024-03-12T01:52:22.044Z,7.31
2024-03-12T01:54:49.574Z,7.20
2024-03-12T01:57:57.869Z,7.18
2024-03-12T02:00:35.022Z,7.11
2024-03-12T02:03:02.109Z,7.14
2024-03-12T02:09:22.321Z,7.08
2024-03-12T02:11:49.054Z,7.13
2024-03-12T02:14:17.822Z,7.13
2024-03-12T02:19:31.728Z,7.18
2024-03-12T02:22:06.906Z,7.08
2024-03-12T02:24:51.906Z,7.22
2024-03-12T02:27:21.737Z,7.19
2024-03-12T02:29:51.098Z,7.27
2024-03-12T02:32:18.951Z,7.33
2024-03-12T02:39:44.820Z,7.35
2024-03-12T02:45:22.034Z,7.42
2024-03-12T02:47:49.384Z,7.43
2024-03-12T02:50:51.131Z,7.42
2024-03-12T02:53:58.149Z,7.42
2024-03-12T02:56:25.414Z,7.34
2024-03-12T03:02:34.437Z,7.32
2024-03-12T03:05:51.163Z,7.46
2024-03-12T03:08:18.631Z,7.41
2024-03-12T03:19:46.557Z,7.37
2024-03-12T03:22:13.626Z,7.28
2024-03-12T03:24:40.264Z,7.27
2024-03-12T03:31:33.551Z,7.21
2024-03-12T03:34:25.771Z,7.21
2024-03-12T03:36:53.521Z,7.26
2024-03-12T03:39:24.664Z,7.33
2024-03-12T03:41:56.564Z,7.35
2024-03-12T03:44:24.272Z,7.26
2024-03-12T03:46:51.507Z,7.29
2024-03-12T03:49:41.711Z,7.30
2024-03-12T03:53:03.212Z,7.43
2024-03-12T03:55:29.803Z,7.35
2024-03-12T03:57:56.522Z,7.33
2024-03-12T04:00:29.622Z,7.29
2024-03-12T04:03:01.638Z,7.29
2024-03-12T04:05:30.898Z,7.18
2024-03-12T04:07:57.677Z,7.30
2024-03-12T04:10:30.760Z,7.24
2024-03-12T04:17:20.634Z,7.44
2024-03-12T04:19:53.963Z,7.46
2024-03-12T04:22:21.110Z,7.44
2024-03-12T04:24:47.860Z,7.59
2024-03-12T04:27:15.022Z,7.61
2024-03-12T04:29:45.230Z,7.60
2024-03-12T04:32:12.518Z,7.61
2024-03-12T04:35:23.484Z,7.66
2024-03-12T04:38:41.170Z,7.72
2024-03-12T04:41:22.298Z,7.68
2024-03-12T04:57:15.352Z,7.75
2024-03-12T05:04:22.412Z,7.76
2024-03-12T05:06:53.177Z,7.75
2024-03-12T05:16:47.521Z,7.71
2024-03-12T05:19:18.966Z,7.77
2024-03-12T05:21:46.777Z,7.77
2024-03-12T05:24:20.147Z,7.72
2024-03-12T05:26:55.678Z,7.74
2024-03-12T05:29:52.112Z,7.80
2024-03-12T05:32:44.392Z,7.71
2024-03-12T05:35:24.326Z,7.74
2024-03-12T05:38:13.566Z,7.79
2024-03-12T05:41:47.130Z,7.71
2024-03-12T05:45:07.377Z,7.73
2024-03-12T05:47:55.577Z,7.82
2024-03-12T05:50:28.059Z,7.72
2024-03-12T05:52:55.372Z,7.75
2024-03-12T05:55:28.797Z,7.81
2024-03-12T05:57:56.483Z,7.77
2024-03-12T06:00:23.075Z,7.85
2024-03-12T06:02:50.684Z,7.82
2024-03-12T06:05:27.371Z,7.88
2024-03-12T06:07:53.998Z,7.87
2024-03-12T06:11:06.179Z,7.77
2024-03-12T06:13:35.320Z,7.73
2024-03-12T06:16:04.798Z,7.75
2024-03-12T06:18:31.450Z,7.83
2024-03-12T06:20:58.466Z,7.91
2024-03-12T06:23:26.960Z,7.93
2024-03-12T06:25:53.958Z,7.94
2024-03-12T06:28:27.230Z,7.96
2024-03-12T06:30:54.084Z,8.02
2024-03-12T06:33:20.718Z,8.00
2024-03-12T06:35:49.119Z,8.02
2024-03-12T06:38:16.720Z,8.05
2024-03-12T06:40:44.013Z,8.03
2024-03-12T06:43:15.174Z,8.06
2024-03-12T06:45:42.431Z,8.08
2024-03-12T06:48:09.063Z,8.11
2024-03-12T06:50:36.085Z,8.14
2024-03-12T06:53:02.644Z,8.13
2024-03-12T06:55:29.286Z,8.08
2024-03-12T06:58:01.304Z,8.10
2024-03-12T07:00:37.667Z,8.08
2024-03-12T07:03:05.394Z,8.10
2024-03-12T07:05:34.493Z,8.13
2024-03-12T07:08:06.309Z,8.14
2024-03-12T07:10:33.632Z,8.19
2024-03-12T07:13:03.052Z,8.28
2024-03-12T07:15:32.527Z,8.31
2024-03-12T07:17:59.738Z,8.34
2024-03-12T07:20:29.065Z,8.36
2024-03-12T07:22:58.026Z,8.39
2024-03-12T07:25:26.286Z,8.39
2024-03-12T07:27:56.831Z,8.42
2024-03-12T07:30:25.654Z,8.45
2024-03-12T07:32:52.853Z,8.52
2024-03-12T07:35:19.498Z,8.58
2024-03-12T07:37:47.182Z,8.54
2024-03-12T07:40:17.142Z,8.49
2024-03-12T07:42:45.285Z,8.49
2024-03-12T07:45:13.885Z,8.47
2024-03-12T07:47:43.058Z,8.43
2024-03-12T07:50:12.282Z,8.42
2024-03-12T07:52:38.811Z,8.43
2024-03-12T07:55:07.060Z,8.43
2024-03-12T07:57:34.688Z,8.48
2024-03-12T08:00:01.432Z,8.52
2024-03-12T08:02:31.171Z,8.57
2024-03-12T08:04:58.746Z,8.61
2024-03-12T08:07:25.321Z,8.60
2024-03-12T08:09:52.035Z,8.62
2024-03-12T08:12:18.817Z,8.61
2024-03-12T08:14:45.807Z,8.64
2024-03-12T08:17:16.287Z,8.67
2024-03-12T08:19:49.364Z,8.68
2024-03-12T08:22:16.307Z,8.69
2024-03-12T08:24:47.933Z,8.70
2024-03-12T08:27:17.188Z,8.69
2024-03-12T08:29:44.691Z,8.66
2024-03-12T08:32:11.357Z,8.72
2024-03-12T08:34:38.008Z,8.78
2024-03-12T08:37:04.895Z,8.80
2024-03-12T08:39:31.505Z,8.79
2024-03-12T08:41:58.311Z,8.78
2024-03-12T08:44:24.907Z,8.85
2024-03-12T08:46:51.649Z,8.92
2024-03-12T08:49:18.491Z,8.98
2024-03-12T08:51:46.197Z,8.99
2024-03-12T08:54:14.760Z,8.98
2024-03-12T08:56:43.851Z,9.00
2024-03-12T08:59:10.680Z,9.06
2024-03-12T09:01:37.645Z,9.10
2024-03-12T09:04:04.702Z,9.17
2024-03-12T09:06:33.594Z,9.21
2024-03-12T09:09:00.244Z,9.21
2024-03-12T09:11:28.065Z,9.20
2024-03-12T09:13:55.305Z,9.22
2024-03-12T09:16:22.841Z,9.12
2024-03-12T09:18:49.507Z,9.07
2024-03-12T09:21:17.668Z,9.07
2024-03-12T09:23:52.516Z,8.96
2024-03-12T09:26:24.149Z,8.98
2024-03-12T09:28:51.185Z,8.93
2024-03-12T09:31:20.055Z,8.90
2024-03-12T09:33:46.861Z,8.91
2024-03-12T09:36:15.273Z,8.84
2024-03-12T09:38:42.481Z,8.76
2024-03-12T09:41:10.605Z,8.74
2024-03-12T09:43:38.639Z,8.66
2024-03-12T09:46:05.483Z,8.67
2024-03-12T09:48:32.613Z,8.61
2024-03-12T09:51:02.267Z,8.54
2024-03-12T09:53:29.215Z,8.52
2024-03-12T09:55:56.335Z,8.49
2024-03-12T09:58:23.310Z,8.58
2024-03-12T10:00:49.889Z,8.62
2024-03-12T10:03:20.058Z,8.58
2024-03-12T10:05:47.484Z,8.58
2024-03-12T10:08:18.955Z,8.58
2024-03-12T10:10:53.062Z,8.61
2024-03-12T10:13:20.753Z,8.64
2024-03-12T10:15:55.352Z,8.67
2024-03-12T10:18:22.251Z,8.71
2024-03-12T10:20:57.236Z,8.75
2024-03-12T10:23:26.794Z,8.78
2024-03-12T10:25:56.556Z,8.89
2024-03-12T10:28:25.933Z,8.92
2024-03-12T10:30:52.542Z,9.00
2024-03-12T10:33:20.059Z,9.02
2024-03-12T10:35:47.003Z,9.02
2024-03-12T10:38:33.947Z,9.05
2024-03-12T10:41:22.412Z,9.03
2024-03-12T10:43:54.750Z,8.99
2024-03-12T10:46:24.709Z,8.99
2024-03-12T10:48:52.138Z,8.95
2024-03-12T10:51:20.456Z,8.96
2024-03-12T10:53:54.219Z,8.94
2024-03-12T10:56:21.106Z,9.02
2024-03-12T10:58:48.605Z,9.08
2024-03-12T11:01:25.443Z,9.11
2024-03-12T11:03:57.329Z,9.17
2024-03-12T11:06:28.689Z,9.14
2024-03-12T11:09:00.570Z,9.09
2024-03-12T11:11:29.248Z,9.05
2024-03-12T11:13:57.986Z,9.08
2024-03-12T11:16:31.942Z,9.06
2024-03-12T11:19:00.095Z,9.09
2024-03-12T11:21:33.540Z,8.95
2024-03-12T11:24:00.253Z,8.80
2024-03-12T11:26:36.950Z,8.88
2024-03-12T11:29:03.745Z,8.87
2024-03-12T11:31:38.151Z,8.84
2024-03-12T11:34:05.998Z,8.83
2024-03-12T11:36:41.086Z,8.77
2024-03-12T11:39:18.242Z,8.79
2024-03-12T11:42:11.564Z,8.81
2024-03-12T11:44:56.321Z,8.82
2024-03-12T11:47:31.876Z,8.86
2024-03-12T11:50:03.048Z,8.84
2024-03-12T11:52:32.963Z,8.86
2024-03-12T11:55:00.468Z,8.97
2024-03-12T11:57:31.283Z,9.12
2024-03-12T11:59:58.632Z,9.33
2024-03-12T12:02:27.406Z,9.46
2024-03-12T12:04:58.721Z,9.52
2024-03-12T12:07:26.790Z,9.62
2024-03-12T12:09:54.266Z,9.77
2024-03-12T12:12:21.606Z,9.81
2024-03-12T12:14:53.530Z,9.90
2024-03-12T12:17:24.317Z,9.94
2024-03-12T12:20:17.836Z,9.93
2024-03-12T12:22:47.380Z,9.94
2024-03-12T12:25:20.005Z,9.88
2024-03-12T12:27:47.552Z,9.86
2024-03-12T12:30:15.738Z,9.88
2024-03-12T12:32:43.360Z,9.96
2024-03-12T12:35:13.158Z,9.98
2024-03-12T12:37:40.774Z,9.96
2024-03-12T12:40:10.586Z,9.87
2024-03-12T12:42:39.755Z,9.88
2024-03-12T12:45:09.733Z,9.90
2024-03-12T12:47:37.769Z,9.91
2024-03-12T12:50:04.706Z,9.88
2024-03-12T12:52:31.785Z,9.88
2024-03-12T12:54:59.041Z,9.92
2024-03-12T12:57:35.696Z,9.97
2024-03-12T13:00:16.228Z,9.96
2024-03-12T13:02:43.205Z,10.02
2024-03-12T13:05:11.106Z,10.03
2024-03-12T13:07:38.321Z,10.04
2024-03-12T13:10:15.973Z,9.99
2024-03-12T13:12:43.972Z,10.03
2024-03-12T13:15:31.677Z,10.09
2024-03-12T13:17:59.528Z,10.10
2024-03-12T13:20:26.232Z,10.09
2024-03-12T13:22:53.773Z,10.08
2024-03-12T13:25:23.263Z,10.13
2024-03-12T13:27:50.090Z,10.20
2024-03-12T13:30:16.830Z,10.19
2024-03-12T13:32:43.815Z,10.21
2024-03-12T13:35:11.126Z,10.17
2024-03-12T13:37:37.837Z,10.15
2024-03-12T13:40:06.506Z,10.22
2024-03-12T13:42:33.535Z,10.21
2024-03-12T13:45:00.190Z,10.15
2024-03-12T13:47:27.527Z,10.11
2024-03-12T13:49:54.572Z,9.99
2024-03-12T13:52:22.643Z,9.89
2024-03-12T13:54:50.131Z,9.88
2024-03-12T13:57:17.743Z,9.83
2024-03-12T13:59:45.546Z,9.81
2024-03-12T14:02:14.430Z,9.87
2024-03-12T14:04:41.075Z,9.88
2024-03-12T14:07:09.787Z,9.86
2024-03-12T14:09:36.400Z,9.86
2024-03-12T14:12:03.061Z,9.79
2024-03-12T14:14:33.637Z,9.76
2024-03-12T14:17:01.386Z,9.74
2024-03-12T14:19:27.968Z,9.63
2024-03-12T14:21:55.346Z,9.59
2024-03-12T14:24:21.967Z,9.60
2024-03-12T14:26:48.709Z,9.67
2024-03-12T14:29:17.330Z,9.74
2024-03-12T14:31:43.897Z,9.75
2024-03-12T14:34:10.819Z,9.76
2024-03-12T14:36:37.448Z,9.78
2024-03-12T14:39:08.693Z,9.68
2024-03-12T14:41:35.808Z,9.61
2024-03-12T14:44:02.271Z,9.58
2024-03-12T14:46:30.840Z,9.46
2024-03-12T14:48:58.519Z,9.42
2024-03-12T14:51:25.103Z,9.37
2024-03-12T14:53:51.636Z,9.31
2024-03-12T14:56:18.183Z,9.26
2024-03-12T14:58:44.659Z,9.27
2024-03-12T15:01:11.855Z,9.26
2024-03-12T15:03:38.510Z,9.22
2024-03-12T15:06:05.972Z,9.18
2024-03-12T15:08:32.591Z,9.09
2024-03-12T15:10:59.286Z,9.04
2024-03-12T15:13:25.884Z,9.02
2024-03-12T15:15:52.559Z,9.05
2024-03-12T15:18:21.543Z,8.96
2024-03-12T15:20:49.169Z,8.96
2024-03-12T15:23:16.768Z,8.95
2024-03-12T15:25:43.757Z,8.92
2024-03-12T15:28:10.384Z,8.85
2024-03-12T15:30:38.302Z,8.85
2024-03-12T15:33:07.831Z,8.84
2024-03-12T15:35:37.284Z,8.83
2024-03-12T15:38:05.967Z,8.82
2024-03-12T15:40:36.057Z,8.76
2024-03-12T15:43:03.171Z,8.73
2024-03-12T15:45:29.694Z,8.74
2024-03-12T15:47:56.309Z,8.79
2024-03-12T15:50:22.919Z,8.76
2024-03-12T15:52:49.481Z,8.76
2024-03-12T15:55:16.250Z,8.74
2024-03-12T15:57:45.641Z,8.65
2024-03-12T16:00:15.145Z,8.66
2024-03-12T16:02:42.376Z,8.66
2024-03-12T16:05:09.495Z,8.66
2024-03-12T16:07:36.006Z,8.65
2024-03-12T16:10:03.649Z,8.71
2024-03-12T16:12:31.122Z,8.71
2024-03-12T16:14:57.717Z,8.75
2024-03-12T16:17:25.411Z,8.71
2024-03-12T16:19:51.944Z,8.67
2024-03-12T16:22:18.720Z,8.66
2024-03-12T16:24:45.319Z,8.62
2024-03-12T16:27:11.972Z,8.61
2024-03-12T16:29:38.455Z,8.61
2024-03-12T16:32:08.870Z,8.61
2024-03-12T16:34:35.509Z,8.61
2024-03-12T16:37:02.940Z,8.62
2024-03-12T16:39:30.090Z,8.53
2024-03-12T16:41:59.687Z,8.57
2024-03-12T16:44:26.246Z,8.56
2024-03-12T16:46:56.673Z,8.49
2024-03-12T16:49:23.565Z,8.50
2024-03-12T16:51:51.207Z,8.43
2024-03-12T16:54:18.787Z,8.46
2024-03-12T16:56:45.819Z,8.48
2024-03-12T16:59:12.799Z,8.50
2024-03-12T17:01:39.913Z,8.49
2024-03-12T17:04:06.879Z,8.48
2024-03-12T17:06:34.644Z,8.52
2024-03-12T17:09:02.894Z,8.51
2024-03-12T17:11:29.843Z,8.51
2024-03-12T17:13:58.248Z,8.53
2024-03-12T17:16:27.269Z,8.57
2024-03-12T17:18:58.551Z,8.58
2024-03-12T17:21:29.755Z,8.59
2024-03-12T17:23:56.524Z,8.58
2024-03-12T17:26:23.075Z,8.57
2024-03-12T17:28:50.601Z,8.59
2024-03-12T17:31:18.098Z,8.57
2024-03-12T17:33:45.305Z,8.57
2024-03-12T17:36:19.934Z,8.56
2024-03-12T17:38:52.680Z,8.58
2024-03-12T17:41:20.008Z,8.55
2024-03-12T17:43:46.937Z,8.54
2024-03-12T17:46:16.456Z,8.52
2024-03-12T18:05:57.937Z,8.41
2024-03-12T18:08:28.653Z,8.31
2024-03-12T18:10:59.292Z,8.30
2024-03-12T18:13:26.637Z,8.23
2024-03-12T18:15:58.293Z,8.18
2024-03-12T18:18:25.793Z,8.17
2024-03-12T18:20:53.780Z,8.17
2024-03-12T18:23:20.924Z,8.20
2024-03-12T18:25:47.909Z,8.24
2024-03-12T18:28:15.727Z,8.23
2024-03-12T18:30:42.995Z,8.19
2024-03-12T18:33:16.571Z,8.09
2024-03-12T18:35:47.564Z,8.18
2024-03-12T18:38:18.068Z,8.13
2024-03-12T18:40:45.548Z,8.11
2024-03-12T18:43:16.562Z,8.19
2024-03-12T18:45:45.020Z,8.26
2024-03-12T18:48:12.672Z,8.24
2024-03-12T18:50:39.855Z,8.28
2024-03-12T18:53:08.010Z,8.28
2024-03-12T18:55:34.866Z,8.30
2024-03-12T18:58:01.944Z,8.30
2024-03-12T19:00:32.992Z,8.18
2024-03-12T19:29:41.964Z,8.11
2024-03-12T19:32:09.452Z,8.08
2024-03-12T19:34:37.480Z,8.08
2024-03-12T19:37:04.983Z,8.06
2024-03-12T19:39:32.134Z,8.06
2024-03-12T19:41:59.218Z,8.01
